Time;durP1;ratioP1;P1;durP2;ratioP2;P2;SDS_P1;SDS_P2;PMS_P1;PMS_P2;Temp;Humidity;BMP_temperature;BMP_pressure;BME280_temperature;BME280_humidity;BME280_pressure;Samples;Min_cycle;Max_cycle;Signal;HPM_P1;HPM_P2
2021/03/21 00:00:10;;;;;;;5.32;2.58;;;;;;;;;;5049307;28;20726;-75
2021/03/21 00:02:37;;;;;;;6.75;2.65;;;;;;;;;;5049328;28;20049;-75
2021/03/21 00:05:04;;;;;;;7.75;2.50;;;;;;;;;;5048694;28;20064;-75
2021/03/21 00:07:31;;;;;;;4.30;2.25;;;;;;;;;;5048803;28;20076;-76
2021/03/21 00:09:58;;;;;;;6.32;2.20;;;;;;;;;;5049433;28;20120;-75
2021/03/21 00:12:25;;;;;;;5.70;2.50;;;;;;;;;;5030941;28;20536;-76
2021/03/21 00:14:51;;;;;;;6.80;2.72;;;;;;;;;;5040318;28;20116;-76
2021/03/21 00:17:18;;;;;;;8.57;3.55;;;;;;;;;;5048755;28;20080;-76
2021/03/21 00:19:45;;;;;;;9.25;2.55;;;;;;;;;;5063629;28;20053;-76
2021/03/21 00:22:12;;;;;;;7.78;2.83;;;;;;;;;;5063970;28;20049;-76
2021/03/21 00:24:39;;;;;;;7.15;2.78;;;;;;;;;;5030986;28;20127;-76
2021/03/21 00:27:07;;;;;;;8.65;2.53;;;;;;;;;;5048904;28;20102;-75
2021/03/21 00:29:34;;;;;;;6.60;2.53;;;;;;;;;;5049308;28;20495;-75
2021/03/21 00:32:01;;;;;;;5.90;2.42;;;;;;;;;;5040404;28;20073;-76
2021/03/21 00:34:28;;;;;;;5.22;2.72;;;;;;;;;;5037663;28;20077;-76
2021/03/21 00:36:54;;;;;;;6.07;2.67;;;;;;;;;;5045615;28;20125;-76
2021/03/21 00:39:21;;;;;;;5.13;2.80;;;;;;;;;;5031377;28;20128;-76
2021/03/21 00:41:48;;;;;;;5.97;2.53;;;;;;;;;;5031320;28;20049;-75
2021/03/21 00:44:14;;;;;;;6.00;3.05;;;;;;;;;;5049057;28;20142;-75
2021/03/21 00:46:41;;;;;;;5.85;2.95;;;;;;;;;;5065523;28;20109;-75
2021/03/21 00:49:08;;;;;;;8.98;2.45;;;;;;;;;;5066912;28;20059;-75
2021/03/21 00:51:35;;;;;;;8.80;2.72;;;;;;;;;;5068056;28;20042;-76
2021/03/21 00:54:01;;;;;;;3.65;2.30;;;;;;;;;;5053776;28;20080;-75
2021/03/21 00:56:30;;;;;;;7.50;3.03;;;;;;;;;;5030952;28;20568;-75
2021/03/21 00:58:58;;;;;;;5.32;2.58;;;;;;;;;;5030851;28;20126;-75
2021/03/21 01:01:25;;;;;;;6.93;3.10;;;;;;;;;;5030913;28;20064;-75
2021/03/21 01:03:52;;;;;;;7.80;2.63;;;;;;;;;;5030915;28;20569;-76
2021/03/21 01:06:19;;;;;;;8.38;2.60;;;;;;;;;;5048716;28;20061;-75
2021/03/21 01:08:46;;;;;;;7.43;2.30;;;;;;;;;;5048732;28;20480;-76
2021/03/21 01:11:15;;;;;;;8.25;2.90;;;;;;;;;;5048378;28;20144;-76
2021/03/21 01:13:42;;;;;;;4.90;2.95;;;;;;;;;;5041549;28;20076;-76
2021/03/21 01:16:13;;;;;;;5.55;2.70;;;;;;;;;;5029947;28;20057;-76
2021/03/21 01:18:39;;;;;;;4.93;2.67;;;;;;;;;;5049253;28;20087;-76
2021/03/21 01:21:11;;;;;;;5.97;2.58;;;;;;;;;;5050581;28;20132;-76
2021/03/21 01:23:39;;;;;;;4.00;2.20;;;;;;;;;;5060627;28;20452;-76
2021/03/21 01:26:06;;;;;;;6.88;2.53;;;;;;;;;;5052007;28;20087;-76
2021/03/21 01:28:34;;;;;;;6.18;2.40;;;;;;;;;;5051919;28;20049;-76
2021/03/21 01:31:02;;;;;;;5.75;2.33;;;;;;;;;;5034277;28;20048;-76
2021/03/21 01:33:30;;;;;;;4.43;2.53;;;;;;;;;;5052418;28;20882;-76
2021/03/21 01:35:58;;;;;;;6.25;3.10;;;;;;;;;;5034544;28;20144;-76
2021/03/21 01:38:24;;;;;;;7.65;3.33;;;;;;;;;;5052415;28;20051;-76
2021/03/21 01:40:53;;;;;;;5.68;2.72;;;;;;;;;;5051680;28;20106;-75
2021/03/21 01:43:27;;;;;;;4.43;2.53;;;;;;;;;;5031017;28;20053;-75
2021/03/21 01:45:53;;;;;;;7.75;2.55;;;;;;;;;;5047612;28;20076;-76
2021/03/21 01:48:22;;;;;;;7.75;2.47;;;;;;;;;;5067212;28;20156;-75
2021/03/21 01:50:53;;;;;;;6.82;2.47;;;;;;;;;;5066992;28;20049;-75
2021/03/21 01:53:22;;;;;;;3.47;2.35;;;;;;;;;;5051594;28;20110;-75
2021/03/21 01:55:49;;;;;;;4.68;2.22;;;;;;;;;;5051973;28;20139;-75
2021/03/21 01:58:18;;;;;;;7.30;2.50;;;;;;;;;;5052282;28;20064;-75
2021/03/21 02:00:46;;;;;;;5.65;2.95;;;;;;;;;;5052025;28;20091;-75
2021/03/21 02:03:13;;;;;;;7.72;2.42;;;;;;;;;;5034219;28;20107;-75
2021/03/21 02:05:41;;;;;;;6.82;2.63;;;;;;;;;;5051126;28;20759;-75
2021/03/21 02:08:24;;;;;;;4.93;2.70;;;;;;;;;;5051063;28;20049;-76
2021/03/21 02:11:04;;;;;;;6.35;2.72;;;;;;;;;;5051464;28;20507;-76
2021/03/21 02:13:33;;;;;;;5.53;2.60;;;;;;;;;;5046705;28;20088;-76
2021/03/21 02:16:03;;;;;;;4.60;2.55;;;;;;;;;;5047883;28;20137;-76
2021/03/21 02:18:38;;;;;;;8.65;2.78;;;;;;;;;;5051235;28;20688;-76
2021/03/21 02:21:20;;;;;;;7.85;2.95;;;;;;;;;;5051064;28;20084;-76
2021/03/21 02:23:53;;;;;;;6.22;2.25;;;;;;;;;;5034994;28;20140;-76
2021/03/21 02:26:28;;;;;;;5.53;2.60;;;;;;;;;;5033461;28;20049;-76
2021/03/21 02:29:01;;;;;;;5.78;2.60;;;;;;;;;;5051737;28;20408;-76
2021/03/21 02:31:34;;;;;;;7.63;2.35;;;;;;;;;;5052416;28;20135;-76
2021/03/21 02:34:04;;;;;;;9.00;2.83;;;;;;;;;;5051134;28;20160;-76
2021/03/21 02:36:40;;;;;;;7.50;3.03;;;;;;;;;;5051012;28;20677;-76
2021/03/21 02:39:18;;;;;;;3.97;2.30;;;;;;;;;;5033213;28;20095;-75
2021/03/21 02:41:51;;;;;;;10.80;2.83;;;;;;;;;;5033379;28;20096;-76
2021/03/21 02:44:21;;;;;;;7.40;2.97;;;;;;;;;;5024930;28;20478;-76
2021/03/21 02:46:52;;;;;;;8.63;2.80;;;;;;;;;;5050656;28;20122;-76
2021/03/21 02:49:28;;;;;;;5.35;2.47;;;;;;;;;;5066062;28;20052;-76
2021/03/21 02:52:01;;;;;;;6.53;2.50;;;;;;;;;;5050982;28;20135;-75
2021/03/21 02:54:41;;;;;;;4.35;2.50;;;;;;;;;;5032144;28;20049;-75
2021/03/21 02:57:09;;;;;;;6.30;2.33;;;;;;;;;;5045563;28;20568;-76
2021/03/21 02:59:38;;;;;;;7.55;2.88;;;;;;;;;;5045671;28;20069;-76
2021/03/21 03:02:13;;;;;;;7.78;3.03;;;;;;;;;;5030354;28;20049;-76
2021/03/21 03:04:42;;;;;;;5.32;3.03;;;;;;;;;;5030970;28;20056;-75
2021/03/21 03:07:31;;;;;;;8.00;2.85;;;;;;;;;;5030420;28;20045;-76
2021/03/21 03:10:02;;;;;;;8.02;2.65;;;;;;;;;;5045150;28;20472;-76
2021/03/21 03:12:28;;;;;;;11.07;3.70;;;;;;;;;;5045213;28;20092;-75
2021/03/21 03:14:55;;;;;;;7.70;3.15;;;;;;;;;;5041633;28;20140;-76
2021/03/21 03:17:28;;;;;;;7.05;3.10;;;;;;;;;;5065002;28;20139;-76
2021/03/21 03:19:55;;;;;;;4.25;2.58;;;;;;;;;;5065238;28;20773;-75
2021/03/21 03:22:31;;;;;;;11.38;3.55;;;;;;;;;;5049624;28;20136;-76
2021/03/21 03:25:03;;;;;;;7.47;3.15;;;;;;;;;;5049705;28;20137;-75
2021/03/21 03:27:35;;;;;;;9.60;3.65;;;;;;;;;;5049221;28;20228;-76
2021/03/21 03:30:08;;;;;;;9.88;3.13;;;;;;;;;;5049773;28;20742;-76
2021/03/21 03:32:35;;;;;;;6.50;3.38;;;;;;;;;;5050623;28;20099;-76
2021/03/21 03:35:07;;;;;;;10.00;3.85;;;;;;;;;;5049976;28;20123;-76
2021/03/21 03:37:33;;;;;;;10.93;3.45;;;;;;;;;;5049531;28;20079;-76
2021/03/21 03:40:00;;;;;;;7.38;3.70;;;;;;;;;;5050125;28;20048;-76
2021/03/21 03:42:27;;;;;;;9.82;3.50;;;;;;;;;;5031176;28;20140;-76
2021/03/21 03:44:56;;;;;;;9.55;5.45;;;;;;;;;;5036873;28;20131;-76
2021/03/21 03:47:29;;;;;;;7.72;3.03;;;;;;;;;;5049493;28;20055;-76
2021/03/21 03:49:59;;;;;;;6.30;3.13;;;;;;;;;;5049779;28;20532;-76
2021/03/21 03:52:45;;;;;;;8.25;3.35;;;;;;;;;;5049482;28;20127;-76
2021/03/21 03:55:22;;;;;;;9.85;3.20;;;;;;;;;;5031761;28;20152;-76
2021/03/21 03:57:59;;;;;;;10.98;2.80;;;;;;;;;;5031367;28;20141;-76
2021/03/21 04:00:26;;;;;;;6.70;2.90;;;;;;;;;;5031768;28;20060;-76
2021/03/21 04:03:02;;;;;;;7.07;2.90;;;;;;;;;;5031585;28;20428;-76
2021/03/21 04:05:33;;;;;;;7.50;2.80;;;;;;;;;;5031674;28;20059;-77
2021/03/21 04:08:31;;;;;;;7.18;2.85;;;;;;;;;;5031362;28;20045;-77
2021/03/21 04:11:03;;;;;;;6.22;3.20;;;;;;;;;;4978461;28;20043;-77
2021/03/21 04:13:34;;;;;;;7.68;3.15;;;;;;;;;;5027742;28;20986;-77
2021/03/21 04:16:01;;;;;;;11.65;3.00;;;;;;;;;;5045644;28;20094;-76
2021/03/21 04:18:28;;;;;;;10.25;2.97;;;;;;;;;;5049221;28;20080;-76
2021/03/21 04:21:16;;;;;;;9.13;3.28;;;;;;;;;;5064392;28;20164;-75
2021/03/21 04:23:48;;;;;;;5.25;2.80;;;;;;;;;;5049498;28;20558;-76
2021/03/21 04:26:17;;;;;;;5.95;2.72;;;;;;;;;;5030758;28;20053;-75
2021/03/21 04:28:47;;;;;;;9.23;3.20;;;;;;;;;;5049084;28;20057;-75
2021/03/21 04:31:14;;;;;;;5.70;3.10;;;;;;;;;;5031483;28;20091;-75
2021/03/21 04:33:53;;;;;;;6.82;2.72;;;;;;;;;;5030916;28;20126;-75
2021/03/21 04:36:22;;;;;;;4.22;2.53;;;;;;;;;;5049248;28;20381;-75
2021/03/21 04:38:57;;;;;;;10.20;2.92;;;;;;;;;;5031318;28;20135;-75
2021/03/21 04:41:25;;;;;;;5.68;2.10;;;;;;;;;;5031103;28;20104;-75
2021/03/21 04:44:02;;;;;;;8.80;2.72;;;;;;;;;;5024427;28;20099;-75
2021/03/21 04:46:33;;;;;;;9.40;1.90;;;;;;;;;;5048022;28;20084;-75
2021/03/21 04:49:01;;;;;;;3.58;1.83;;;;;;;;;;5048854;28;20140;-75
2021/03/21 04:51:30;;;;;;;4.82;2.03;;;;;;;;;;5062698;28;20048;-75
2021/03/21 04:54:03;;;;;;;3.47;1.50;;;;;;;;;;5033416;28;20072;-75
2021/03/21 04:56:32;;;;;;;4.68;1.40;;;;;;;;;;5033816;28;20049;-75
2021/03/21 04:59:09;;;;;;;3.92;1.60;;;;;;;;;;5034006;28;20481;-75
2021/03/21 05:01:37;;;;;;;4.07;1.85;;;;;;;;;;5034428;28;20056;-75
2021/03/21 05:04:06;;;;;;;4.93;2.28;;;;;;;;;;5051870;28;20092;-76
2021/03/21 05:06:42;;;;;;;3.35;1.50;;;;;;;;;;5051652;28;20088;-75
2021/03/21 05:09:14;;;;;;;5.03;1.67;;;;;;;;;;5051781;28;20052;-75
2021/03/21 05:11:42;;;;;;;2.45;1.58;;;;;;;;;;5052556;28;20049;-75
2021/03/21 05:14:18;;;;;;;4.45;1.48;;;;;;;;;;5052252;28;20130;-75
2021/03/21 05:17:06;;;;;;;5.30;1.80;;;;;;;;;;5066751;28;20053;-75
2021/03/21 05:19:46;;;;;;;3.55;1.58;;;;;;;;;;5066780;28;20080;-75
2021/03/21 05:22:28;;;;;;;3.10;1.27;;;;;;;;;;5065491;28;20135;-75
2021/03/21 05:25:13;;;;;;;6.50;1.35;;;;;;;;;;5034529;28;20464;-75
2021/03/21 05:27:44;;;;;;;2.90;1.70;;;;;;;;;;5034207;28;20045;-75
2021/03/21 05:30:40;;;;;;;5.40;1.48;;;;;;;;;;5034383;28;20040;-75
2021/03/21 05:33:08;;;;;;;9.50;2.22;;;;;;;;;;5048009;28;20102;-75
2021/03/21 05:35:36;;;;;;;8.88;2.10;;;;;;;;;;5051568;28;20466;-75
2021/03/21 05:38:26;;;;;;;12.40;2.30;;;;;;;;;;5051362;28;20080;-75
2021/03/21 05:41:12;;;;;;;13.13;2.35;;;;;;;;;;5025851;28;20093;-75
2021/03/21 05:43:44;;;;;;;14.15;2.80;;;;;;;;;;5046339;28;20041;-75
2021/03/21 05:46:30;;;;;;;7.63;2.85;;;;;;;;;;5033051;28;20076;-75
2021/03/21 05:48:56;;;;;;;;;;;;;;;;;;5067131;28;20504;-75
2021/03/21 05:51:42;;;;;;;17.95;4.25;;;;;;;;;;5066961;28;20003;-75
2021/03/21 05:54:11;;;;;;;17.73;3.63;;;;;;;;;;5051317;28;20048;-75
2021/03/21 05:56:56;;;;;;;19.30;6.22;;;;;;;;;;5051449;28;20090;-75
2021/03/21 05:59:23;;;;;;;33.05;5.13;;;;;;;;;;5051354;28;20052;-75
2021/03/21 06:02:06;;;;;;;19.15;3.78;;;;;;;;;;5051049;28;20552;-75
2021/03/21 06:04:46;;;;;;;24.38;3.97;;;;;;;;;;5032657;28;20049;-75
2021/03/21 06:07:25;;;;;;;19.50;4.13;;;;;;;;;;5032896;28;20060;-75
2021/03/21 06:10:04;;;;;;;29.95;4.93;;;;;;;;;;5051201;28;20091;-75
2021/03/21 06:12:36;;;;;;;32.45;5.15;;;;;;;;;;5051534;28;20057;-75
2021/03/21 06:15:17;;;;;;;35.47;4.57;;;;;;;;;;5043227;28;20049;-75
2021/03/21 06:17:54;;;;;;;49.17;5.35;;;;;;;;;;5031424;28;20111;-75
2021/03/21 06:20:36;;;;;;;44.30;5.47;;;;;;;;;;5046695;28;20060;-75
2021/03/21 06:23:13;;;;;;;46.08;7.85;;;;;;;;;;5062865;28;20646;-75
2021/03/21 06:25:54;;;;;;;43.53;7.55;;;;;;;;;;5051286;28;20045;-75
2021/03/21 06:28:32;;;;;;;48.78;8.13;;;;;;;;;;5051111;28;20721;-75
2021/03/21 06:31:18;;;;;;;58.28;9.63;;;;;;;;;;5033588;28;20088;-75
2021/03/21 06:33:45;;;;;;;;;;;;;;;;;;5051603;28;20521;-75
2021/03/21 06:36:21;;;;;;;55.05;7.95;;;;;;;;;;5050730;28;20031;-75
2021/03/21 06:38:50;;;;;;;55.75;6.60;;;;;;;;;;5051591;28;20147;-75
2021/03/21 06:41:36;;;;;;;64.50;7.25;;;;;;;;;;5033973;28;20107;-78
2021/03/21 06:44:03;;;;;;;;;;;;;;;;;;5036418;28;20071;-78
2021/03/21 06:46:48;;;;;;;66.03;8.82;;;;;;;;;;5052530;28;20327;-77
2021/03/21 06:49:33;;;;;;;60.53;8.23;;;;;;;;;;5032076;28;20053;-77
2021/03/21 06:52:08;;;;;;;57.17;9.23;;;;;;;;;;5048505;28;20456;-77
2021/03/21 06:55:10;;;;;;;74.25;9.18;;;;;;;;;;5051163;28;20072;-77
2021/03/21 06:57:52;;;;;;;74.57;8.32;;;;;;;;;;5008101;28;20108;-76
2021/03/21 07:00:48;;;;;;;79.35;9.25;;;;;;;;;;5031794;28;20049;-77
2021/03/21 07:03:33;;;;;;;71.75;8.07;;;;;;;;;;5042812;28;20087;-77
2021/03/21 07:06:03;;;;;;;67.15;8.95;;;;;;;;;;5033044;28;20053;-77
2021/03/21 07:08:49;;;;;;;77.75;10.32;;;;;;;;;;5033527;28;20048;-75
2021/03/21 07:11:28;;;;;;;75.47;7.68;;;;;;;;;;5033238;28;20053;-77
2021/03/21 07:14:07;;;;;;;75.53;10.68;;;;;;;;;;5050806;28;20072;-77
2021/03/21 07:16:38;;;;;;;73.35;10.02;;;;;;;;;;5044731;28;20209;-77
2021/03/21 07:19:16;;;;;;;53.78;7.47;;;;;;;;;;5031100;28;20057;-77
2021/03/21 07:22:02;;;;;;;68.47;9.02;;;;;;;;;;5032609;28;20049;-77
2021/03/21 07:24:47;;;;;;;87.05;11.40;;;;;;;;;;5050058;28;20455;-77
2021/03/21 07:27:20;;;;;;;85.00;8.45;;;;;;;;;;5050447;28;20080;-77
2021/03/21 07:29:55;;;;;;;64.72;8.30;;;;;;;;;;5032598;28;20084;-77
2021/03/21 07:32:48;;;;;;;62.10;7.88;;;;;;;;;;5033762;28;20400;-77
2021/03/21 07:35:19;;;;;;;72.72;9.18;;;;;;;;;;5050362;28;20056;-77
2021/03/21 07:37:48;;;;;;;77.32;9.60;;;;;;;;;;5065470;28;20124;-76
2021/03/21 07:40:18;;;;;;;74.78;10.35;;;;;;;;;;5037036;28;20135;-76
2021/03/21 07:42:48;;;;;;;73.10;8.95;;;;;;;;;;5049967;28;20060;-76
2021/03/21 07:45:19;;;;;;;57.08;7.90;;;;;;;;;;5056691;28;20056;-76
2021/03/21 07:47:46;;;;;;;65.45;6.95;;;;;;;;;;5049268;28;20112;-76
2021/03/21 07:50:22;;;;;;;54.83;7.78;;;;;;;;;;5049820;28;20384;-76
2021/03/21 07:52:49;;;;;;;65.85;8.05;;;;;;;;;;5049694;28;20102;-77
2021/03/21 07:55:19;;;;;;;52.40;8.88;;;;;;;;;;5049682;28;20134;-76
2021/03/21 07:58:01;;;;;;;54.00;7.13;;;;;;;;;;5064448;28;20048;-76
2021/03/21 08:00:28;;;;;;;54.03;6.03;;;;;;;;;;5049484;28;20131;-77
2021/03/21 08:03:08;;;;;;;70.70;7.78;;;;;;;;;;5049758;28;20420;-76
2021/03/21 08:05:35;;;;;;;54.47;7.25;;;;;;;;;;5063950;28;20073;-77
2021/03/21 08:08:02;;;;;;;49.00;7.18;;;;;;;;;;5048656;28;20055;-76
2021/03/21 08:10:34;;;;;;;59.20;7.93;;;;;;;;;;5048982;28;20064;-76
2021/03/21 08:13:10;;;;;;;69.63;7.80;;;;;;;;;;5048762;28;20049;-76
2021/03/21 08:15:38;;;;;;;51.17;7.43;;;;;;;;;;5048336;28;20136;-76
2021/03/21 08:18:09;;;;;;;54.83;6.13;;;;;;;;;;5063690;28;20053;-77
2021/03/21 08:20:37;;;;;;;62.53;7.63;;;;;;;;;;5063303;28;20485;-76
2021/03/21 08:23:26;;;;;;;44.25;7.18;;;;;;;;;;5063137;28;20045;-76
2021/03/21 08:25:54;;;;;;;47.45;7.50;;;;;;;;;;5048605;28;20057;-76
2021/03/21 08:28:23;;;;;;;53.08;8.00;;;;;;;;;;5047929;28;20130;-76
2021/03/21 08:30:52;;;;;;;61.97;9.43;;;;;;;;;;5048888;28;20143;-78
2021/03/21 08:33:30;;;;;;;54.35;8.27;;;;;;;;;;5063901;28;20045;-78
2021/03/21 08:36:06;;;;;;;61.85;6.90;;;;;;;;;;5063980;28;20057;-74
2021/03/21 08:38:35;;;;;;;64.03;10.10;;;;;;;;;;5049239;28;20080;-76
2021/03/21 08:41:03;;;;;;;55.13;7.20;;;;;;;;;;5031057;28;20076;-75
2021/03/21 08:43:33;;;;;;;39.70;5.85;;;;;;;;;;5045968;28;20167;-75
2021/03/21 08:46:02;;;;;;;44.70;7.10;;;;;;;;;;5030297;28;20055;-76
2021/03/21 08:48:34;;;;;;;49.65;6.70;;;;;;;;;;5049087;28;20076;-76
2021/03/21 08:51:04;;;;;;;38.42;6.22;;;;;;;;;;5064485;28;20045;-76
2021/03/21 08:53:55;;;;;;;41.72;7.35;;;;;;;;;;5048523;28;20550;-77
2021/03/21 08:56:35;;;;;;;41.78;6.57;;;;;;;;;;5019695;28;20099;-76
2021/03/21 08:59:21;;;;;;;44.55;7.05;;;;;;;;;;5048990;28;20063;-77
2021/03/21 09:01:58;;;;;;;47.30;7.97;;;;;;;;;;5062458;28;20092;-77
2021/03/21 09:04:26;;;;;;;29.92;5.80;;;;;;;;;;5048769;28;20477;-75
2021/03/21 09:06:53;;;;;;;36.65;5.93;;;;;;;;;;5048141;28;20056;-75
2021/03/21 09:09:28;;;;;;;38.08;5.35;;;;;;;;;;5047568;28;20061;-76
2021/03/21 09:11:56;;;;;;;40.83;5.10;;;;;;;;;;5064469;28;20088;-79
2021/03/21 09:14:25;;;;;;;28.35;4.43;;;;;;;;;;5056002;28;20053;-76
2021/03/21 09:17:00;;;;;;;24.48;4.70;;;;;;;;;;5048750;28;20127;-77
2021/03/21 09:19:27;;;;;;;;;;;;;;;;;;5064428;28;20053;-77
2021/03/21 09:21:54;;;;;;;29.38;5.78;;;;;;;;;;5047585;28;19987;-79
2021/03/21 09:24:25;;;;;;;21.52;4.03;;;;;;;;;;5063127;28;20853;-75
2021/03/21 09:26:55;;;;;;;16.88;3.53;;;;;;;;;;5047349;28;20053;-78
2021/03/21 09:29:28;;;;;;;25.38;3.50;;;;;;;;;;5047787;28;20049;-78
2021/03/21 09:31:57;;;;;;;21.00;3.53;;;;;;;;;;5062943;28;20530;-77
2021/03/21 09:34:29;;;;;;;19.52;3.58;;;;;;;;;;5063407;28;20045;-78
2021/03/21 09:36:59;;;;;;;19.38;3.65;;;;;;;;;;5061603;28;20156;-77
2021/03/21 09:39:36;;;;;;;22.00;4.07;;;;;;;;;;5060910;28;20555;-75
2021/03/21 09:42:05;;;;;;;17.40;3.10;;;;;;;;;;5033002;28;20647;-77
2021/03/21 09:44:36;;;;;;;21.00;4.15;;;;;;;;;;5041627;28;20136;-77
2021/03/21 09:47:15;;;;;;;12.82;2.67;;;;;;;;;;5059733;28;20420;-78
2021/03/21 09:50:11;;;;;;;13.68;3.22;;;;;;;;;;5040003;28;20146;-77
2021/03/21 09:52:53;;;;;;;19.17;3.93;;;;;;;;;;5039549;28;20037;-78
2021/03/21 09:55:40;;;;;;;12.20;3.15;;;;;;;;;;5040918;28;20045;-77
2021/03/21 09:58:13;;;;;;;11.93;2.75;;;;;;;;;;5026615;28;20053;-79
2021/03/21 10:00:42;;;;;;;13.70;2.45;;;;;;;;;;5057621;28;20136;-79
2021/03/21 10:03:10;;;;;;;13.75;2.30;;;;;;;;;;5035256;28;20057;-78
2021/03/21 10:05:50;;;;;;;6.88;1.70;;;;;;;;;;5039880;28;20161;-80
2021/03/21 10:08:21;;;;;;;11.38;2.20;;;;;;;;;;5034344;28;20053;-75
2021/03/21 10:11:00;;;;;;;5.45;1.75;;;;;;;;;;5057183;28;20064;-76
2021/03/21 10:13:33;;;;;;;8.27;2.33;;;;;;;;;;5033886;28;20053;-77
2021/03/21 10:16:19;;;;;;;9.43;2.78;;;;;;;;;;5035645;28;20053;-77
2021/03/21 10:18:48;;;;;;;6.40;2.40;;;;;;;;;;5049795;28;20060;-78
2021/03/21 10:21:24;;;;;;;5.53;1.67;;;;;;;;;;5035827;28;20171;-78
2021/03/21 10:23:51;;;;;;;7.05;2.63;;;;;;;;;;5033320;28;20056;-78
2021/03/21 10:26:20;;;;;;;8.32;2.35;;;;;;;;;;5055697;28;20080;-76
2021/03/21 10:28:49;;;;;;;12.77;8.55;;;;;;;;;;5032831;28;20100;-76
2021/03/21 10:31:22;;;;;;;9.40;3.38;;;;;;;;;;5037112;28;20095;-76
2021/03/21 10:33:50;;;;;;;9.15;4.28;;;;;;;;;;5056067;28;20404;-76
2021/03/21 10:36:35;;;;;;;5.85;1.90;;;;;;;;;;5033667;28;20049;-76
2021/03/21 10:39:02;;;;;;;;;;;;;;;;;;5023559;28;20132;-77
2021/03/21 10:41:48;;;;;;;3.33;1.40;;;;;;;;;;5035499;28;20015;-77
2021/03/21 10:44:15;;;;;;;2.97;1.70;;;;;;;;;;5035969;28;20072;-77
2021/03/21 10:46:53;;;;;;;2.75;1.30;;;;;;;;;;5022498;28;20064;-77
2021/03/21 10:49:38;;;;;;;4.75;1.58;;;;;;;;;;5032920;28;20074;-76
2021/03/21 10:52:07;;;;;;;4.32;1.20;;;;;;;;;;5037128;28;20052;-77
2021/03/21 10:54:33;;;;;;;4.03;1.33;;;;;;;;;;5029445;28;20152;-77
2021/03/21 10:57:23;;;;;;;4.80;1.13;;;;;;;;;;5034480;28;20108;-77
2021/03/21 11:00:11;;;;;;;4.55;1.30;;;;;;;;;;5049953;28;20059;-77
2021/03/21 11:02:38;;;;;;;5.28;1.17;;;;;;;;;;5034052;28;20049;-76
2021/03/21 11:05:40;;;;;;;5.45;1.00;;;;;;;;;;5032248;28;20053;-76
2021/03/21 11:08:15;;;;;;;2.65;0.95;;;;;;;;;;5022546;28;20057;-76
2021/03/21 11:10:44;;;;;;;2.10;0.90;;;;;;;;;;5030483;28;20132;-76
2021/03/21 11:13:14;;;;;;;3.75;1.15;;;;;;;;;;5035113;28;20153;-74
2021/03/21 11:15:45;;;;;;;2.58;1.38;;;;;;;;;;5032225;28;20143;-74
2021/03/21 11:18:18;;;;;;;3.42;0.93;;;;;;;;;;5023049;28;20099;-74
2021/03/21 11:20:45;;;;;;;3.45;0.95;;;;;;;;;;5035560;28;20073;-74
2021/03/21 11:23:30;;;;;;;3.58;1.20;;;;;;;;;;5035719;28;20147;-74
2021/03/21 11:25:57;;;;;;;7.65;1.17;;;;;;;;;;5035642;28;20067;-75
2021/03/21 11:28:37;;;;;;;1.95;0.95;;;;;;;;;;5037027;28;20041;-75
2021/03/21 11:31:07;;;;;;;2.22;0.93;;;;;;;;;;5052027;28;20045;-74
2021/03/21 11:33:33;;;;;;;9.07;1.63;;;;;;;;;;5032151;28;21242;-74
2021/03/21 11:36:08;;;;;;;2.00;0.73;;;;;;;;;;5018405;28;20787;-74
2021/03/21 11:38:37;;;;;;;2.10;0.80;;;;;;;;;;5031378;28;20436;-74
2021/03/21 11:41:06;;;;;;;7.30;1.40;;;;;;;;;;5036438;28;20221;-75
2021/03/21 11:43:33;;;;;;;2.60;1.00;;;;;;;;;;5030682;28;20073;-75
2021/03/21 11:46:32;;;;;;;3.20;0.63;;;;;;;;;;5017830;28;20076;-76
2021/03/21 11:49:00;;;;;;;3.65;1.45;;;;;;;;;;5021320;28;20059;-74
2021/03/21 11:51:27;;;;;;;5.85;1.17;;;;;;;;;;5019130;28;20049;-76
2021/03/21 11:53:55;;;;;;;2.65;0.77;;;;;;;;;;5032947;28;20142;-76
2021/03/21 11:56:22;;;;;;;3.10;0.88;;;;;;;;;;5020371;28;20578;-76
2021/03/21 11:58:53;;;;;;;2.53;0.85;;;;;;;;;;5031561;28;20044;-76
2021/03/21 12:01:30;;;;;;;6.32;1.60;;;;;;;;;;5031478;28;21024;-75
2021/03/21 12:04:01;;;;;;;3.92;1.15;;;;;;;;;;5032242;28;20085;-74
2021/03/21 12:06:28;;;;;;;2.72;1.25;;;;;;;;;;5028229;28;20049;-74
2021/03/21 12:08:54;;;;;;;5.80;1.73;;;;;;;;;;5031565;28;20069;-74
2021/03/21 12:11:24;;;;;;;15.55;1.40;;;;;;;;;;5032131;28;20662;-75
2021/03/21 12:13:52;;;;;;;4.28;1.10;;;;;;;;;;5032334;28;20140;-75
2021/03/21 12:16:28;;;;;;;2.80;1.33;;;;;;;;;;5031816;28;20456;-76
2021/03/21 12:19:00;;;;;;;3.40;1.50;;;;;;;;;;5032445;28;20051;-75
2021/03/21 12:21:27;;;;;;;4.97;1.50;;;;;;;;;;5033703;28;20126;-76
2021/03/21 12:23:54;;;;;;;3.83;1.58;;;;;;;;;;5032928;28;20045;-76
2021/03/21 12:26:47;;;;;;;7.75;1.45;;;;;;;;;;5021159;28;20068;-77
2021/03/21 12:29:23;;;;;;;3.47;1.20;;;;;;;;;;5035569;28;20476;-76
2021/03/21 12:31:51;;;;;;;3.78;1.23;;;;;;;;;;5030676;28;20073;-75
2021/03/21 12:34:34;;;;;;;2.55;1.00;;;;;;;;;;5029270;28;20065;-74
2021/03/21 12:37:13;;;;;;;3.40;0.85;;;;;;;;;;5031280;28;20053;-75
2021/03/21 12:39:41;;;;;;;3.92;0.93;;;;;;;;;;5030307;28;20045;-75
2021/03/21 12:42:34;;;;;;;3.42;0.90;;;;;;;;;;5046340;28;20057;-74
2021/03/21 12:45:12;;;;;;;1.98;1.00;;;;;;;;;;5031774;28;20103;-73
2021/03/21 12:47:40;;;;;;;3.80;1.30;;;;;;;;;;5006071;28;20054;-74
2021/03/21 12:50:18;;;;;;;12.43;1.10;;;;;;;;;;5000244;28;20092;-75
2021/03/21 12:52:46;;;;;;;4.90;0.95;;;;;;;;;;4992776;28;20762;-75
2021/03/21 12:55:14;;;;;;;7.40;0.90;;;;;;;;;;4993053;28;20054;-75
2021/03/21 12:57:41;;;;;;;2.28;1.00;;;;;;;;;;4995301;28;20975;-75
2021/03/21 13:00:09;;;;;;;1.70;0.77;;;;;;;;;;4999642;28;20777;-75
2021/03/21 13:02:37;;;;;;;2.78;0.80;;;;;;;;;;5008752;28;20158;-75
2021/03/21 13:05:07;;;;;;;1.27;0.70;;;;;;;;;;5006342;28;20046;-74
2021/03/21 13:07:34;;;;;;;2.28;1.10;;;;;;;;;;5007966;28;20080;-74
2021/03/21 13:10:00;;;;;;;1.15;0.40;;;;;;;;;;5008131;28;20556;-74
2021/03/21 13:12:27;;;;;;;2.67;0.80;;;;;;;;;;5005904;28;20077;-74
2021/03/21 13:14:54;;;;;;;1.70;0.70;;;;;;;;;;4988644;28;20393;-74
2021/03/21 13:17:21;;;;;;;5.25;0.90;;;;;;;;;;5010493;28;20502;-74
2021/03/21 13:19:48;;;;;;;3.15;0.90;;;;;;;;;;5025707;28;20160;-75
2021/03/21 13:22:15;;;;;;;2.38;0.70;;;;;;;;;;5025967;28;20050;-75
2021/03/21 13:24:43;;;;;;;3.08;0.70;;;;;;;;;;5010403;28;20046;-74
2021/03/21 13:27:10;;;;;;;1.45;0.57;;;;;;;;;;5009965;28;20135;-73
2021/03/21 13:29:37;;;;;;;9.23;1.35;;;;;;;;;;5011729;28;20089;-73
2021/03/21 13:32:04;;;;;;;4.47;0.90;;;;;;;;;;5013094;28;20125;-79
2021/03/21 13:34:32;;;;;;;2.10;0.68;;;;;;;;;;4996396;28;20073;-80
2021/03/21 13:37:19;;;;;;;1.35;0.60;;;;;;;;;;4999200;28;20081;-80
2021/03/21 13:39:51;;;;;;;9.40;4.90;;;;;;;;;;5013679;28;20050;-80
2021/03/21 13:42:18;;;;;;;5.18;0.85;;;;;;;;;;5013087;28;20057;-77
2021/03/21 13:44:45;;;;;;;3.40;0.82;;;;;;;;;;5012745;28;20128;-79
2021/03/21 13:47:13;;;;;;;5.10;1.10;;;;;;;;;;5006701;28;20056;-76
2021/03/21 13:49:59;;;;;;;6.32;0.80;;;;;;;;;;5011805;28;20057;-78
2021/03/21 13:52:26;;;;;;;5.25;1.30;;;;;;;;;;4995275;28;20783;-80
2021/03/21 13:54:54;;;;;;;5.85;1.55;;;;;;;;;;4994281;28;20042;-77
2021/03/21 13:57:20;;;;;;;3.55;1.15;;;;;;;;;;5012812;28;20642;-77
2021/03/21 13:59:48;;;;;;;4.03;1.02;;;;;;;;;;5011867;28;20158;-76
2021/03/21 14:02:14;;;;;;;8.07;1.20;;;;;;;;;;4994180;28;20085;-74
2021/03/21 14:04:41;;;;;;;4.43;0.90;;;;;;;;;;4987931;28;20053;-76
2021/03/21 14:07:08;;;;;;;3.75;1.00;;;;;;;;;;5011102;28;20049;-75
2021/03/21 14:09:35;;;;;;;6.13;1.40;;;;;;;;;;5012073;28;20192;-76
2021/03/21 14:12:01;;;;;;;3.25;0.98;;;;;;;;;;4991986;28;20053;-76
2021/03/21 14:14:28;;;;;;;3.72;1.10;;;;;;;;;;4992579;28;20066;-77
2021/03/21 14:16:55;;;;;;;6.65;0.82;;;;;;;;;;5002468;28;20085;-76
2021/03/21 14:19:22;;;;;;;4.13;0.88;;;;;;;;;;4999582;28;20452;-76
2021/03/21 14:21:49;;;;;;;6.38;0.80;;;;;;;;;;4987229;28;20132;-77
2021/03/21 14:24:15;;;;;;;2.67;1.23;;;;;;;;;;4992943;28;20136;-79
2021/03/21 14:26:42;;;;;;;3.47;0.80;;;;;;;;;;5009570;28;20131;-78
2021/03/21 14:29:09;;;;;;;2.88;0.80;;;;;;;;;;4993660;28;20049;-79
2021/03/21 14:31:36;;;;;;;2.67;0.80;;;;;;;;;;4994849;28;20114;-78
2021/03/21 14:34:03;;;;;;;3.22;0.90;;;;;;;;;;5011269;28;20058;-77
2021/03/21 14:36:30;;;;;;;3.50;1.00;;;;;;;;;;5009668;28;20660;-77
2021/03/21 14:38:57;;;;;;;3.53;1.33;;;;;;;;;;5008552;28;20156;-76
2021/03/21 14:41:24;;;;;;;6.60;1.10;;;;;;;;;;5009962;28;20061;-78
2021/03/21 14:43:50;;;;;;;5.07;0.80;;;;;;;;;;5010268;28;20096;-77
2021/03/21 14:46:17;;;;;;;3.72;0.80;;;;;;;;;;4991799;28;20086;-77
2021/03/21 14:48:44;;;;;;;1.60;0.95;;;;;;;;;;5009922;28;20054;-78
2021/03/21 14:51:11;;;;;;;2.65;1.13;;;;;;;;;;4992374;28;20089;-78
2021/03/21 14:53:38;;;;;;;4.95;1.05;;;;;;;;;;5009921;28;20100;-79
2021/03/21 14:56:05;;;;;;;5.43;1.30;;;;;;;;;;5009809;28;20081;-80
2021/03/21 14:58:31;;;;;;;2.78;0.85;;;;;;;;;;5010067;28;20128;-79
2021/03/21 15:01:01;;;;;;;2.53;0.73;;;;;;;;;;5009658;28;20084;-77
2021/03/21 15:03:29;;;;;;;3.58;1.10;;;;;;;;;;5007842;28;20493;-78
2021/03/21 15:05:59;;;;;;;4.25;0.90;;;;;;;;;;5008607;28;20050;-74
2021/03/21 15:08:30;;;;;;;9.15;2.15;;;;;;;;;;5008270;28;20050;-73
2021/03/21 15:10:58;;;;;;;7.72;2.20;;;;;;;;;;5008276;28;20046;-75